createdAt,value
2022-08-30T00:05:13.716Z,62.8
2022-08-30T00:35:30.942Z,68.80001
2022-08-30T01:05:47.907Z,74.7
2022-08-30T01:36:06.281Z,79
2022-08-30T02:36:39.779Z,83.9
2022-08-30T03:06:56.836Z,85.30001
2022-08-30T03:37:14.256Z,88.2
2022-08-30T04:07:32.218Z,90.2
2022-08-30T04:37:50.261Z,91.1
2022-08-30T05:08:08.462Z,91.50001
2022-08-30T05:38:29.418Z,89.40001
2022-08-30T06:08:50.982Z,81.7
2022-08-30T06:39:15.056Z,69.5
2022-08-30T07:09:38.020Z,61.9
2022-08-30T07:40:03.688Z,57.2
2022-08-30T08:10:28.033Z,50.2
2022-08-30T08:40:50.523Z,48.7
2022-08-30T09:11:11.855Z,44.3
2022-08-30T09:41:36.810Z,40.6
2022-08-30T10:11:58.885Z,36.9
2022-08-30T10:42:18.686Z,36.6
2022-08-30T11:12:40.335Z,32.3
2022-08-30T11:43:01.887Z,31.7
2022-08-30T12:13:23.321Z,32
2022-08-30T12:43:44.460Z,31
2022-08-30T13:13:58.686Z,31.8
2022-08-30T13:44:15.980Z,32.7
2022-08-30T14:14:16.123Z,33.9
2022-08-30T14:44:45.727Z,37.1
2022-08-30T15:14:49.914Z,38.6
2022-08-30T15:45:08.350Z,38.3
2022-08-30T16:15:27.534Z,38.9
2022-08-30T16:45:44.126Z,39.7
2022-08-30T17:16:00.330Z,41.4
2022-08-30T17:46:17.227Z,43.5
2022-08-30T18:16:34.961Z,45.6
2022-08-30T18:46:56.165Z,47.8
2022-08-30T19:17:13.848Z,49.7
2022-08-30T19:47:32.161Z,51.3
2022-08-30T20:18:05.404Z,53.1
2022-08-30T20:48:13.408Z,54.1
2022-08-30T21:18:29.497Z,54.8
2022-08-30T21:48:46.441Z,55.6
2022-08-30T22:19:03.726Z,56.7
2022-08-30T22:49:22.314Z,57.7
2022-08-30T23:19:40.114Z,59.2
2022-08-30T23:49:56.698Z,60.5
